sensor_id;sensor_type;location;lat;lon;timestamp;temperature;humidity
14604;DHT22;7388;51.078;13.740;2023-05-10T00:01:48;18.00;27.00
14604;DHT22;7388;51.078;13.740;2023-05-10T00:04:13;18.10;27.10
14604;DHT22;7388;51.078;13.740;2023-05-10T00:06:39;18.00;27.00
14604;DHT22;7388;51.078;13.740;2023-05-10T00:09:06;18.00;27.00
14604;DHT22;7388;51.078;13.740;2023-05-10T00:11:32;18.00;27.10
14604;DHT22;7388;51.078;13.740;2023-05-10T00:13:58;18.00;27.20
14604;DHT22;7388;51.078;13.740;2023-05-10T00:16:23;18.00;27.20
14604;DHT22;7388;51.078;13.740;2023-05-10T00:18:49;17.90;27.20
14604;DHT22;7388;51.078;13.740;2023-05-10T00:21:15;18.00;27.20
14604;DHT22;7388;51.078;13.740;2023-05-10T00:23:40;18.00;27.20
14604;DHT22;7388;51.078;13.740;2023-05-10T00:26:06;17.90;27.20
14604;DHT22;7388;51.078;13.740;2023-05-10T00:28:32;17.90;27.40
14604;DHT22;7388;51.078;13.740;2023-05-10T00:30:57;17.90;27.40
14604;DHT22;7388;51.078;13.740;2023-05-10T00:33:23;17.90;27.30
14604;DHT22;7388;51.078;13.740;2023-05-10T00:35:49;17.90;27.40
14604;DHT22;7388;51.078;13.740;2023-05-10T00:38:15;17.90;27.40
14604;DHT22;7388;51.078;13.740;2023-05-10T00:40:41;17.80;27.20
14604;DHT22;7388;51.078;13.740;2023-05-10T00:43:06;17.80;27.20
14604;DHT22;7388;51.078;13.740;2023-05-10T00:45:33;17.80;27.30
14604;DHT22;7388;51.078;13.740;2023-05-10T00:48:04;17.80;27.30
14604;DHT22;7388;51.078;13.740;2023-05-10T00:50:31;17.80;27.30
14604;DHT22;7388;51.078;13.740;2023-05-10T00:52:58;17.80;27.20
14604;DHT22;7388;51.078;13.740;2023-05-10T00:55:25;17.70;27.30
14604;DHT22;7388;51.078;13.740;2023-05-10T00:57:52;17.70;27.40
14604;DHT22;7388;51.078;13.740;2023-05-10T01:00:18;17.70;27.30
14604;DHT22;7388;51.078;13.740;2023-05-10T01:02:46;17.70;27.40
14604;DHT22;7388;51.078;13.740;2023-05-10T01:05:12;17.60;27.30
14604;DHT22;7388;51.078;13.740;2023-05-10T01:07:39;17.60;27.20
14604;DHT22;7388;51.078;13.740;2023-05-10T01:10:08;17.60;28.00
14604;DHT22;7388;51.078;13.740;2023-05-10T01:12:38;17.60;27.30
14604;DHT22;7388;51.078;13.740;2023-05-10T01:15:06;17.60;27.30
14604;DHT22;7388;51.078;13.740;2023-05-10T01:17:32;17.50;27.40
14604;DHT22;7388;51.078;13.740;2023-05-10T01:19:58;17.40;27.40
14604;DHT22;7388;51.078;13.740;2023-05-10T01:25:21;17.50;27.50
14604;DHT22;7388;51.078;13.740;2023-05-10T01:31:22;17.40;27.50
14604;DHT22;7388;51.078;13.740;2023-05-10T01:34:00;17.30;27.50
14604;DHT22;7388;51.078;13.740;2023-05-10T01:36:53;17.20;27.60
14604;DHT22;7388;51.078;13.740;2023-05-10T01:39:24;17.20;27.70
14604;DHT22;7388;51.078;13.740;2023-05-10T01:41:52;17.20;27.80
14604;DHT22;7388;51.078;13.740;2023-05-10T01:44:42;17.20;27.90
14604;DHT22;7388;51.078;13.740;2023-05-10T01:47:15;17.20;28.00
14604;DHT22;7388;51.078;13.740;2023-05-10T01:49:54;17.10;27.90
14604;DHT22;7388;51.078;13.740;2023-05-10T01:52:41;17.10;28.00
14604;DHT22;7388;51.078;13.740;2023-05-10T01:55:13;17.20;28.00
14604;DHT22;7388;51.078;13.740;2023-05-10T01:57:43;17.10;28.10
14604;DHT22;7388;51.078;13.740;2023-05-10T02:00:10;17.10;28.10
14604;DHT22;7388;51.078;13.740;2023-05-10T02:02:38;17.00;28.10
14604;DHT22;7388;51.078;13.740;2023-05-10T02:05:08;17.00;28.00
14604;DHT22;7388;51.078;13.740;2023-05-10T02:07:36;17.00;28.30
14604;DHT22;7388;51.078;13.740;2023-05-10T02:10:06;16.90;28.20
14604;DHT22;7388;51.078;13.740;2023-05-10T02:12:37;16.90;28.40
14604;DHT22;7388;51.078;13.740;2023-05-10T02:15:06;16.90;28.40
14604;DHT22;7388;51.078;13.740;2023-05-10T02:17:33;16.80;28.60
14604;DHT22;7388;51.078;13.740;2023-05-10T02:20:01;16.80;28.70
14604;DHT22;7388;51.078;13.740;2023-05-10T02:22:29;16.80;28.90
14604;DHT22;7388;51.078;13.740;2023-05-10T02:24:56;16.70;28.90
14604;DHT22;7388;51.078;13.740;2023-05-10T02:27:23;16.70;28.80
14604;DHT22;7388;51.078;13.740;2023-05-10T02:29:51;16.70;29.10
14604;DHT22;7388;51.078;13.740;2023-05-10T02:32:18;16.70;29.00
14604;DHT22;7388;51.078;13.740;2023-05-10T02:34:45;16.70;29.20
14604;DHT22;7388;51.078;13.740;2023-05-10T02:37:16;16.60;29.00
14604;DHT22;7388;51.078;13.740;2023-05-10T02:39:44;16.60;29.20
14604;DHT22;7388;51.078;13.740;2023-05-10T02:42:18;16.60;29.20
14604;DHT22;7388;51.078;13.740;2023-05-10T02:44:50;16.60;29.20
14604;DHT22;7388;51.078;13.740;2023-05-10T02:47:17;16.60;29.20
14604;DHT22;7388;51.078;13.740;2023-05-10T02:49:43;16.60;29.50
14604;DHT22;7388;51.078;13.740;2023-05-10T02:52:10;16.50;29.60
14604;DHT22;7388;51.078;13.740;2023-05-10T02:54:43;16.50;29.60
14604;DHT22;7388;51.078;13.740;2023-05-10T02:57:15;16.50;29.40
14604;DHT22;7388;51.078;13.740;2023-05-10T02:59:41;16.50;29.60
14604;DHT22;7388;51.078;13.740;2023-05-10T03:02:09;16.50;29.50
14604;DHT22;7388;51.078;13.740;2023-05-10T03:04:35;16.50;29.60
14604;DHT22;7388;51.078;13.740;2023-05-10T03:07:01;16.40;30.00
14604;DHT22;7388;51.078;13.740;2023-05-10T03:09:27;16.40;29.80
14604;DHT22;7388;51.078;13.740;2023-05-10T03:20:41;16.40;30.00
14604;DHT22;7388;51.078;13.740;2023-05-10T03:25:38;16.40;30.00
14604;DHT22;7388;51.078;13.740;2023-05-10T03:28:06;16.40;30.00
14604;DHT22;7388;51.078;13.740;2023-05-10T03:30:33;16.40;30.00
14604;DHT22;7388;51.078;13.740;2023-05-10T03:33:04;16.40;30.10
14604;DHT22;7388;51.078;13.740;2023-05-10T03:35:31;16.30;30.30
14604;DHT22;7388;51.078;13.740;2023-05-10T03:37:57;16.30;30.50
14604;DHT22;7388;51.078;13.740;2023-05-10T03:40:24;16.30;30.60
14604;DHT22;7388;51.078;13.740;2023-05-10T03:42:50;16.20;30.70
14604;DHT22;7388;51.078;13.740;2023-05-10T03:45:15;16.20;30.80
14604;DHT22;7388;51.078;13.740;2023-05-10T03:47:41;16.20;30.80
14604;DHT22;7388;51.078;13.740;2023-05-10T03:50:07;16.20;30.90
14604;DHT22;7388;51.078;13.740;2023-05-10T03:52:33;16.20;30.80
14604;DHT22;7388;51.078;13.740;2023-05-10T03:54:59;16.20;30.80
14604;DHT22;7388;51.078;13.740;2023-05-10T03:57:24;16.20;30.70
14604;DHT22;7388;51.078;13.740;2023-05-10T03:59:50;16.20;30.70
14604;DHT22;7388;51.078;13.740;2023-05-10T04:02:16;16.20;30.70
14604;DHT22;7388;51.078;13.740;2023-05-10T04:04:42;16.20;30.90
14604;DHT22;7388;51.078;13.740;2023-05-10T04:07:07;16.30;30.90
14604;DHT22;7388;51.078;13.740;2023-05-10T04:09:33;16.30;30.80
14604;DHT22;7388;51.078;13.740;2023-05-10T04:11:59;16.40;30.60
14604;DHT22;7388;51.078;13.740;2023-05-10T04:14:27;16.40;30.60
14604;DHT22;7388;51.078;13.740;2023-05-10T04:16:53;16.50;30.70
14604;DHT22;7388;51.078;13.740;2023-05-10T04:19:19;16.50;30.70
14604;DHT22;7388;51.078;13.740;2023-05-10T04:21:44;16.60;30.40
14604;DHT22;7388;51.078;13.740;2023-05-10T04:24:10;16.60;30.60
14604;DHT22;7388;51.078;13.740;2023-05-10T04:26:36;16.70;30.60
14604;DHT22;7388;51.078;13.740;2023-05-10T04:29:02;16.70;30.30
14604;DHT22;7388;51.078;13.740;2023-05-10T04:31:27;16.80;30.40
14604;DHT22;7388;51.078;13.740;2023-05-10T04:33:53;16.80;30.50
14604;DHT22;7388;51.078;13.740;2023-05-10T04:36:19;16.90;30.40
14604;DHT22;7388;51.078;13.740;2023-05-10T04:38:45;16.90;30.40
14604;DHT22;7388;51.078;13.740;2023-05-10T04:41:10;17.00;30.50
14604;DHT22;7388;51.078;13.740;2023-05-10T04:43:37;17.00;30.30
14604;DHT22;7388;51.078;13.740;2023-05-10T04:46:04;17.00;30.20
14604;DHT22;7388;51.078;13.740;2023-05-10T04:48:30;17.00;30.40
14604;DHT22;7388;51.078;13.740;2023-05-10T04:50:55;17.00;30.30
14604;DHT22;7388;51.078;13.740;2023-05-10T04:53:22;17.00;30.50
14604;DHT22;7388;51.078;13.740;2023-05-10T04:55:48;17.10;30.50
14604;DHT22;7388;51.078;13.740;2023-05-10T04:58:14;17.20;30.50
14604;DHT22;7388;51.078;13.740;2023-05-10T05:00:40;17.20;30.40
14604;DHT22;7388;51.078;13.740;2023-05-10T05:03:05;17.30;30.40
14604;DHT22;7388;51.078;13.740;2023-05-10T05:05:31;17.30;30.20
14604;DHT22;7388;51.078;13.740;2023-05-10T05:07:57;17.50;30.20
14604;DHT22;7388;51.078;13.740;2023-05-10T05:10:22;17.50;30.20
14604;DHT22;7388;51.078;13.740;2023-05-10T05:12:48;17.50;30.10
14604;DHT22;7388;51.078;13.740;2023-05-10T05:15:14;17.60;30.10
14604;DHT22;7388;51.078;13.740;2023-05-10T05:17:42;17.60;30.00
14604;DHT22;7388;51.078;13.740;2023-05-10T05:20:08;17.60;30.00
14604;DHT22;7388;51.078;13.740;2023-05-10T05:22:36;17.70;30.00
14604;DHT22;7388;51.078;13.740;2023-05-10T05:25:01;17.90;30.00
14604;DHT22;7388;51.078;13.740;2023-05-10T05:27:29;18.00;29.90
14604;DHT22;7388;51.078;13.740;2023-05-10T05:29:58;18.10;29.70
14604;DHT22;7388;51.078;13.740;2023-05-10T05:32:24;18.20;29.80
14604;DHT22;7388;51.078;13.740;2023-05-10T05:34:50;18.30;29.60
14604;DHT22;7388;51.078;13.740;2023-05-10T05:37:20;18.40;29.20
14604;DHT22;7388;51.078;13.740;2023-05-10T05:39:47;18.50;29.30
14604;DHT22;7388;51.078;13.740;2023-05-10T05:42:13;18.50;29.40
14604;DHT22;7388;51.078;13.740;2023-05-10T05:44:39;18.60;29.30
14604;DHT22;7388;51.078;13.740;2023-05-10T05:47:06;18.70;29.30
14604;DHT22;7388;51.078;13.740;2023-05-10T05:49:32;18.80;29.30
14604;DHT22;7388;51.078;13.740;2023-05-10T05:52:04;18.90;28.80
14604;DHT22;7388;51.078;13.740;2023-05-10T05:54:30;19.00;28.90
14604;DHT22;7388;51.078;13.740;2023-05-10T05:56:57;18.90;28.90
14604;DHT22;7388;51.078;13.740;2023-05-10T05:59:23;19.00;29.10
14604;DHT22;7388;51.078;13.740;2023-05-10T06:01:50;19.10;28.80
14604;DHT22;7388;51.078;13.740;2023-05-10T06:04:16;19.30;28.80
14604;DHT22;7388;51.078;13.740;2023-05-10T06:06:42;19.30;28.00
14604;DHT22;7388;51.078;13.740;2023-05-10T06:09:08;19.20;28.80
14604;DHT22;7388;51.078;13.740;2023-05-10T06:11:35;19.30;28.50
14604;DHT22;7388;51.078;13.740;2023-05-10T06:14:01;19.40;28.50
14604;DHT22;7388;51.078;13.740;2023-05-10T06:16:29;19.50;28.10
14604;DHT22;7388;51.078;13.740;2023-05-10T06:18:54;19.60;28.20
14604;DHT22;7388;51.078;13.740;2023-05-10T06:21:20;19.80;28.40
14604;DHT22;7388;51.078;13.740;2023-05-10T06:23:46;19.80;27.70
14604;DHT22;7388;51.078;13.740;2023-05-10T06:26:12;19.90;27.20
14604;DHT22;7388;51.078;13.740;2023-05-10T06:28:39;19.90;28.00
14604;DHT22;7388;51.078;13.740;2023-05-10T06:31:05;20.10;27.90
14604;DHT22;7388;51.078;13.740;2023-05-10T06:33:31;20.30;28.00
14604;DHT22;7388;51.078;13.740;2023-05-10T06:35:57;20.30;26.90
14604;DHT22;7388;51.078;13.740;2023-05-10T06:38:23;20.40;27.00
14604;DHT22;7388;51.078;13.740;2023-05-10T06:40:49;20.40;27.30
14604;DHT22;7388;51.078;13.740;2023-05-10T06:43:15;20.50;27.50
14604;DHT22;7388;51.078;13.740;2023-05-10T06:45:40;20.70;27.40
14604;DHT22;7388;51.078;13.740;2023-05-10T06:48:07;20.80;26.50
14604;DHT22;7388;51.078;13.740;2023-05-10T06:50:33;20.70;26.30
14604;DHT22;7388;51.078;13.740;2023-05-10T06:52:59;20.80;26.90
14604;DHT22;7388;51.078;13.740;2023-05-10T06:55:26;20.70;26.10
14604;DHT22;7388;51.078;13.740;2023-05-10T06:57:52;20.60;27.00
14604;DHT22;7388;51.078;13.740;2023-05-10T07:00:18;20.70;27.10
14604;DHT22;7388;51.078;13.740;2023-05-10T07:02:44;20.70;26.60
14604;DHT22;7388;51.078;13.740;2023-05-10T07:05:10;20.90;26.80
14604;DHT22;7388;51.078;13.740;2023-05-10T07:07:37;21.00;26.30
14604;DHT22;7388;51.078;13.740;2023-05-10T07:10:03;21.00;26.20
14604;DHT22;7388;51.078;13.740;2023-05-10T07:12:28;21.10;26.30
14604;DHT22;7388;51.078;13.740;2023-05-10T07:14:54;21.20;26.30
14604;DHT22;7388;51.078;13.740;2023-05-10T07:17:20;21.30;26.50
14604;DHT22;7388;51.078;13.740;2023-05-10T07:19:45;21.40;26.60
14604;DHT22;7388;51.078;13.740;2023-05-10T07:22:11;21.50;26.10
14604;DHT22;7388;51.078;13.740;2023-05-10T07:24:37;21.70;25.80
14604;DHT22;7388;51.078;13.740;2023-05-10T07:27:03;21.70;25.60
14604;DHT22;7388;51.078;13.740;2023-05-10T07:29:29;21.70;26.00
14604;DHT22;7388;51.078;13.740;2023-05-10T07:31:55;21.70;25.60
14604;DHT22;7388;51.078;13.740;2023-05-10T07:34:21;21.80;25.80
14604;DHT22;7388;51.078;13.740;2023-05-10T07:36:47;21.90;26.00
14604;DHT22;7388;51.078;13.740;2023-05-10T07:39:13;22.00;25.70
14604;DHT22;7388;51.078;13.740;2023-05-10T07:41:39;22.10;25.10
14604;DHT22;7388;51.078;13.740;2023-05-10T07:44:06;22.10;25.60
14604;DHT22;7388;51.078;13.740;2023-05-10T07:46:31;22.20;25.50
14604;DHT22;7388;51.078;13.740;2023-05-10T07:48:57;22.30;25.20
14604;DHT22;7388;51.078;13.740;2023-05-10T07:51:23;22.30;25.30
14604;DHT22;7388;51.078;13.740;2023-05-10T07:53:49;22.40;25.00
14604;DHT22;7388;51.078;13.740;2023-05-10T07:56:25;22.40;24.90
14604;DHT22;7388;51.078;13.740;2023-05-10T08:11:12;22.40;24.40
14604;DHT22;7388;51.078;13.740;2023-05-10T08:13:38;23.20;25.00
14604;DHT22;7388;51.078;13.740;2023-05-10T08:16:04;23.20;24.30
14604;DHT22;7388;51.078;13.740;2023-05-10T08:18:30;23.20;24.50
14604;DHT22;7388;51.078;13.740;2023-05-10T08:20:56;23.30;24.10
14604;DHT22;7388;51.078;13.740;2023-05-10T08:23:21;23.30;24.30
14604;DHT22;7388;51.078;13.740;2023-05-10T08:25:47;23.30;24.30
14604;DHT22;7388;51.078;13.740;2023-05-10T08:28:13;23.30;24.40
14604;DHT22;7388;51.078;13.740;2023-05-10T08:30:39;23.40;24.00
14604;DHT22;7388;51.078;13.740;2023-05-10T08:33:07;23.40;24.00
14604;DHT22;7388;51.078;13.740;2023-05-10T08:35:33;23.60;24.20
14604;DHT22;7388;51.078;13.740;2023-05-10T08:38:01;23.70;24.20
14604;DHT22;7388;51.078;13.740;2023-05-10T08:40:42;23.80;24.10
14604;DHT22;7388;51.078;13.740;2023-05-10T08:43:09;23.80;23.40
14604;DHT22;7388;51.078;13.740;2023-05-10T08:45:39;23.70;24.30
14604;DHT22;7388;51.078;13.740;2023-05-10T08:48:07;23.90;25.50
14604;DHT22;7388;51.078;13.740;2023-05-10T08:50:36;24.10;23.90
14604;DHT22;7388;51.078;13.740;2023-05-10T08:53:11;24.10;23.50
14604;DHT22;7388;51.078;13.740;2023-05-10T08:55:38;24.10;24.10
14604;DHT22;7388;51.078;13.740;2023-05-10T08:58:06;24.20;24.40
14604;DHT22;7388;51.078;13.740;2023-05-10T09:00:32;24.30;24.10
14604;DHT22;7388;51.078;13.740;2023-05-10T09:02:59;24.20;23.50
14604;DHT22;7388;51.078;13.740;2023-05-10T09:05:25;24.10;23.50
14604;DHT22;7388;51.078;13.740;2023-05-10T09:07:51;24.20;23.60
14604;DHT22;7388;51.078;13.740;2023-05-10T09:10:17;24.30;23.90
14604;DHT22;7388;51.078;13.740;2023-05-10T09:12:44;24.40;23.60
14604;DHT22;7388;51.078;13.740;2023-05-10T09:15:11;24.30;24.00
14604;DHT22;7388;51.078;13.740;2023-05-10T09:17:38;24.40;23.80
14604;DHT22;7388;51.078;13.740;2023-05-10T09:20:07;24.50;23.60
14604;DHT22;7388;51.078;13.740;2023-05-10T09:22:34;24.40;22.90
14604;DHT22;7388;51.078;13.740;2023-05-10T09:27:32;24.60;23.10
14604;DHT22;7388;51.078;13.740;2023-05-10T09:29:58;24.60;23.60
14604;DHT22;7388;51.078;13.740;2023-05-10T09:32:42;24.70;24.00
14604;DHT22;7388;51.078;13.740;2023-05-10T09:35:17;24.90;23.40
14604;DHT22;7388;51.078;13.740;2023-05-10T09:37:45;25.00;23.00
14604;DHT22;7388;51.078;13.740;2023-05-10T09:40:15;25.00;23.70
14604;DHT22;7388;51.078;13.740;2023-05-10T09:43:02;25.10;23.60
14604;DHT22;7388;51.078;13.740;2023-05-10T09:45:32;25.20;22.80
14604;DHT22;7388;51.078;13.740;2023-05-10T09:47:58;25.20;23.00
14604;DHT22;7388;51.078;13.740;2023-05-10T09:50:25;25.30;23.70
14604;DHT22;7388;51.078;13.740;2023-05-10T09:52:56;25.30;24.10
14604;DHT22;7388;51.078;13.740;2023-05-10T09:55:37;25.30;23.00
14604;DHT22;7388;51.078;13.740;2023-05-10T09:58:03;25.40;23.20
14604;DHT22;7388;51.078;13.740;2023-05-10T10:00:36;25.60;22.70
14604;DHT22;7388;51.078;13.740;2023-05-10T10:03:03;25.60;22.00
14604;DHT22;7388;51.078;13.740;2023-05-10T10:05:33;25.60;22.70
14604;DHT22;7388;51.078;13.740;2023-05-10T10:08:01;25.60;22.80
14604;DHT22;7388;51.078;13.740;2023-05-10T10:10:28;25.70;22.50
14604;DHT22;7388;51.078;13.740;2023-05-10T10:12:55;25.80;22.10
14604;DHT22;7388;51.078;13.740;2023-05-10T10:15:21;25.90;22.00
14604;DHT22;7388;51.078;13.740;2023-05-10T10:17:49;26.00;22.00
14604;DHT22;7388;51.078;13.740;2023-05-10T10:20:16;26.10;22.90
14604;DHT22;7388;51.078;13.740;2023-05-10T10:22:42;26.20;22.10
14604;DHT22;7388;51.078;13.740;2023-05-10T10:25:18;26.30;22.20
14604;DHT22;7388;51.078;13.740;2023-05-10T10:33:50;26.20;21.20
14604;DHT22;7388;51.078;13.740;2023-05-10T10:36:17;26.30;21.90
14604;DHT22;7388;51.078;13.740;2023-05-10T10:44:25;26.20;21.80
14604;DHT22;7388;51.078;13.740;2023-05-10T10:47:00;26.10;22.40
14604;DHT22;7388;51.078;13.740;2023-05-10T10:49:27;26.10;23.10
14604;DHT22;7388;51.078;13.740;2023-05-10T10:52:21;26.10;22.50
14604;DHT22;7388;51.078;13.740;2023-05-10T10:54:52;26.10;22.10
14604;DHT22;7388;51.078;13.740;2023-05-10T10:57:19;26.00;22.00
14604;DHT22;7388;51.078;13.740;2023-05-10T10:59:47;25.90;21.80
14604;DHT22;7388;51.078;13.740;2023-05-10T11:02:32;25.90;21.40
14604;DHT22;7388;51.078;13.740;2023-05-10T11:04:59;26.10;21.70
14604;DHT22;7388;51.078;13.740;2023-05-10T11:07:26;26.10;22.00
14604;DHT22;7388;51.078;13.740;2023-05-10T11:09:52;26.20;21.40
14604;DHT22;7388;51.078;13.740;2023-05-10T11:12:17;26.20;21.90
14604;DHT22;7388;51.078;13.740;2023-05-10T11:14:43;26.30;22.50
14604;DHT22;7388;51.078;13.740;2023-05-10T11:17:27;26.40;22.50
14604;DHT22;7388;51.078;13.740;2023-05-10T11:20:07;26.50;21.90
14604;DHT22;7388;51.078;13.740;2023-05-10T11:22:52;26.60;21.90
14604;DHT22;7388;51.078;13.740;2023-05-10T11:25:18;26.70;21.60
14604;DHT22;7388;51.078;13.740;2023-05-10T11:27:44;26.70;21.90
14604;DHT22;7388;51.078;13.740;2023-05-10T11:30:11;26.90;21.90
14604;DHT22;7388;51.078;13.740;2023-05-10T11:32:38;27.10;21.80
14604;DHT22;7388;51.078;13.740;2023-05-10T11:35:08;27.30;22.40
14604;DHT22;7388;51.078;13.740;2023-05-10T11:37:35;27.50;21.70
14604;DHT22;7388;51.078;13.740;2023-05-10T11:40:01;27.60;20.90
14604;DHT22;7388;51.078;13.740;2023-05-10T11:42:28;27.60;20.60
14604;DHT22;7388;51.078;13.740;2023-05-10T11:44:54;27.60;21.00
14604;DHT22;7388;51.078;13.740;2023-05-10T11:47:19;27.70;20.10
14604;DHT22;7388;51.078;13.740;2023-05-10T11:49:47;27.80;20.00
14604;DHT22;7388;51.078;13.740;2023-05-10T11:52:13;27.70;20.00
14604;DHT22;7388;51.078;13.740;2023-05-10T11:54:50;27.70;19.10
14604;DHT22;7388;51.078;13.740;2023-05-10T11:57:18;27.60;20.10
14604;DHT22;7388;51.078;13.740;2023-05-10T11:59:46;27.50;20.00
14604;DHT22;7388;51.078;13.740;2023-05-10T12:02:13;27.30;20.20
14604;DHT22;7388;51.078;13.740;2023-05-10T12:04:39;26.90;20.40
14604;DHT22;7388;51.078;13.740;2023-05-10T12:07:06;26.90;20.30
14604;DHT22;7388;51.078;13.740;2023-05-10T12:09:32;26.80;20.20
14604;DHT22;7388;51.078;13.740;2023-05-10T12:11:57;26.80;20.10
14604;DHT22;7388;51.078;13.740;2023-05-10T12:14:23;26.80;20.90
14604;DHT22;7388;51.078;13.740;2023-05-10T12:16:49;26.90;20.80
14604;DHT22;7388;51.078;13.740;2023-05-10T12:19:19;27.00;21.40
14604;DHT22;7388;51.078;13.740;2023-05-10T12:21:46;27.00;20.30
14604;DHT22;7388;51.078;13.740;2023-05-10T12:24:12;27.00;20.50
14604;DHT22;7388;51.078;13.740;2023-05-10T12:26:39;27.20;20.20
14604;DHT22;7388;51.078;13.740;2023-05-10T12:29:18;27.40;20.90
14604;DHT22;7388;51.078;13.740;2023-05-10T12:32:04;27.40;20.00
14604;DHT22;7388;51.078;13.740;2023-05-10T12:34:32;27.40;21.00
14604;DHT22;7388;51.078;13.740;2023-05-10T12:36:58;27.70;21.00
14604;DHT22;7388;51.078;13.740;2023-05-10T12:39:24;27.90;20.40
14604;DHT22;7388;51.078;13.740;2023-05-10T12:41:51;28.10;21.00
14604;DHT22;7388;51.078;13.740;2023-05-10T12:44:16;28.20;21.00
14604;DHT22;7388;51.078;13.740;2023-05-10T12:46:43;28.30;20.20
14604;DHT22;7388;51.078;13.740;2023-05-10T12:49:08;28.40;21.10
14604;DHT22;7388;51.078;13.740;2023-05-10T12:51:34;28.30;19.40
14604;DHT22;7388;51.078;13.740;2023-05-10T12:54:00;28.30;19.70
14604;DHT22;7388;51.078;13.740;2023-05-10T12:56:26;28.20;19.50
14604;DHT22;7388;51.078;13.740;2023-05-10T12:58:51;28.10;20.20
14604;DHT22;7388;51.078;13.740;2023-05-10T13:01:17;28.10;20.30
14604;DHT22;7388;51.078;13.740;2023-05-10T13:03:43;28.00;21.10
14604;DHT22;7388;51.078;13.740;2023-05-10T13:06:09;28.00;19.40
14604;DHT22;7388;51.078;13.740;2023-05-10T13:08:34;27.80;19.70
14604;DHT22;7388;51.078;13.740;2023-05-10T13:11:01;27.90;19.60
14604;DHT22;7388;51.078;13.740;2023-05-10T13:13:27;27.80;19.70
14604;DHT22;7388;51.078;13.740;2023-05-10T13:15:53;27.70;20.30
14604;DHT22;7388;51.078;13.740;2023-05-10T13:18:18;27.70;20.00
14604;DHT22;7388;51.078;13.740;2023-05-10T13:20:44;27.40;20.40
14604;DHT22;7388;51.078;13.740;2023-05-10T13:23:10;27.40;20.30
14604;DHT22;7388;51.078;13.740;2023-05-10T13:25:36;27.20;20.00
14604;DHT22;7388;51.078;13.740;2023-05-10T13:28:02;27.10;21.00
14604;DHT22;7388;51.078;13.740;2023-05-10T13:30:28;27.10;20.90
14604;DHT22;7388;51.078;13.740;2023-05-10T13:32:54;27.20;20.80
14604;DHT22;7388;51.078;13.740;2023-05-10T13:35:20;27.10;20.70
14604;DHT22;7388;51.078;13.740;2023-05-10T13:37:46;27.10;20.80
14604;DHT22;7388;51.078;13.740;2023-05-10T13:40:12;27.00;20.60
14604;DHT22;7388;51.078;13.740;2023-05-10T13:42:38;27.10;22.00
14604;DHT22;7388;51.078;13.740;2023-05-10T13:45:05;27.10;20.20
14604;DHT22;7388;51.078;13.740;2023-05-10T13:47:31;27.00;20.70
14604;DHT22;7388;51.078;13.740;2023-05-10T13:49:57;26.90;20.30
14604;DHT22;7388;51.078;13.740;2023-05-10T13:52:23;26.80;20.60
14604;DHT22;7388;51.078;13.740;2023-05-10T13:54:49;26.80;21.00
14604;DHT22;7388;51.078;13.740;2023-05-10T13:57:17;26.90;20.60
14604;DHT22;7388;51.078;13.740;2023-05-10T13:59:43;27.00;21.40
14604;DHT22;7388;51.078;13.740;2023-05-10T14:02:09;27.00;20.80
14604;DHT22;7388;51.078;13.740;2023-05-10T14:04:37;27.10;20.70
14604;DHT22;7388;51.078;13.740;2023-05-10T14:07:03;27.10;24.30
14604;DHT22;7388;51.078;13.740;2023-05-10T14:09:28;27.20;25.10
14604;DHT22;7388;51.078;13.740;2023-05-10T14:11:55;27.20;25.00
14604;DHT22;7388;51.078;13.740;2023-05-10T14:14:21;27.40;25.40
14604;DHT22;7388;51.078;13.740;2023-05-10T14:16:47;27.60;21.80
14604;DHT22;7388;51.078;13.740;2023-05-10T14:19:15;27.70;22.50
14604;DHT22;7388;51.078;13.740;2023-05-10T14:21:41;27.80;25.00
14604;DHT22;7388;51.078;13.740;2023-05-10T14:24:07;27.70;25.10
14604;DHT22;7388;51.078;13.740;2023-05-10T14:26:33;27.70;25.90
14604;DHT22;7388;51.078;13.740;2023-05-10T14:28:59;27.80;26.00
14604;DHT22;7388;51.078;13.740;2023-05-10T14:31:25;27.90;25.40
14604;DHT22;7388;51.078;13.740;2023-05-10T14:33:52;27.80;25.60
14604;DHT22;7388;51.078;13.740;2023-05-10T14:36:18;27.80;25.20
14604;DHT22;7388;51.078;13.740;2023-05-10T14:38:44;27.70;25.80
14604;DHT22;7388;51.078;13.740;2023-05-10T14:41:09;27.60;25.70
14604;DHT22;7388;51.078;13.740;2023-05-10T14:43:39;27.40;24.70
14604;DHT22;7388;51.078;13.740;2023-05-10T14:46:05;27.20;25.80
14604;DHT22;7388;51.078;13.740;2023-05-10T14:48:30;27.10;25.20
14604;DHT22;7388;51.078;13.740;2023-05-10T14:50:56;27.00;25.90
14604;DHT22;7388;51.078;13.740;2023-05-10T14:53:22;26.90;25.90
14604;DHT22;7388;51.078;13.740;2023-05-10T14:55:48;26.80;26.30
14604;DHT22;7388;51.078;13.740;2023-05-10T14:58:14;26.70;26.10
14604;DHT22;7388;51.078;13.740;2023-05-10T15:00:40;26.60;26.90
14604;DHT22;7388;51.078;13.740;2023-05-10T15:03:06;26.50;27.10
14604;DHT22;7388;51.078;13.740;2023-05-10T15:05:32;26.40;27.20
14604;DHT22;7388;51.078;13.740;2023-05-10T15:07:57;26.30;27.90
14604;DHT22;7388;51.078;13.740;2023-05-10T15:10:23;26.20;28.10
14604;DHT22;7388;51.078;13.740;2023-05-10T15:12:49;26.20;28.40
14604;DHT22;7388;51.078;13.740;2023-05-10T15:15:15;26.20;28.30
14604;DHT22;7388;51.078;13.740;2023-05-10T15:17:41;26.20;28.60
14604;DHT22;7388;51.078;13.740;2023-05-10T15:20:07;26.20;29.00
14604;DHT22;7388;51.078;13.740;2023-05-10T15:22:33;26.30;28.20
14604;DHT22;7388;51.078;13.740;2023-05-10T15:24:59;26.10;29.00
14604;DHT22;7388;51.078;13.740;2023-05-10T15:27:25;26.10;29.00
14604;DHT22;7388;51.078;13.740;2023-05-10T15:29:51;26.00;29.10
14604;DHT22;7388;51.078;13.740;2023-05-10T15:32:17;25.90;28.70
14604;DHT22;7388;51.078;13.740;2023-05-10T15:34:43;25.70;28.50
14604;DHT22;7388;51.078;13.740;2023-05-10T15:37:08;25.60;29.20
14604;DHT22;7388;51.078;13.740;2023-05-10T15:39:35;25.60;29.60
14604;DHT22;7388;51.078;13.740;2023-05-10T15:42:00;25.60;29.90
14604;DHT22;7388;51.078;13.740;2023-05-10T15:44:26;25.60;30.20
14604;DHT22;7388;51.078;13.740;2023-05-10T15:46:52;25.50;30.30
14604;DHT22;7388;51.078;13.740;2023-05-10T15:49:18;25.40;30.70
14604;DHT22;7388;51.078;13.740;2023-05-10T15:51:44;25.50;30.80
14604;DHT22;7388;51.078;13.740;2023-05-10T15:54:09;25.50;30.20
14604;DHT22;7388;51.078;13.740;2023-05-10T15:56:35;25.40;30.30
14604;DHT22;7388;51.078;13.740;2023-05-10T15:59:01;25.30;30.20
14604;DHT22;7388;51.078;13.740;2023-05-10T16:01:28;25.20;30.30
14604;DHT22;7388;51.078;13.740;2023-05-10T16:03:55;25.10;30.60
14604;DHT22;7388;51.078;13.740;2023-05-10T16:06:21;24.90;30.60
14604;DHT22;7388;51.078;13.740;2023-05-10T16:08:46;24.70;31.00
14604;DHT22;7388;51.078;13.740;2023-05-10T16:11:12;24.60;31.10
14604;DHT22;7388;51.078;13.740;2023-05-10T16:13:38;24.60;31.10
14604;DHT22;7388;51.078;13.740;2023-05-10T16:16:03;24.70;31.30